sensor_id;sensor_type;location;lat;lon;timestamp;P1;durP1;ratioP1;P2;durP2;ratioP2
23718;SDS011;43322;52.230;5.702;2023-08-08T00:01:12;8.25;;;6.85;;
23718;SDS011;43322;52.230;5.702;2023-08-08T00:03:39;8.75;;;7.22;;
23718;SDS011;43322;52.230;5.702;2023-08-08T00:06:05;11.90;;;8.18;;
23718;SDS011;43322;52.230;5.702;2023-08-08T00:08:33;9.90;;;7.97;;
23718;SDS011;43322;52.230;5.702;2023-08-08T00:11:00;9.93;;;8.15;;
23718;SDS011;43322;52.230;5.702;2023-08-08T00:13:27;10.02;;;7.85;;
23718;SDS011;43322;52.230;5.702;2023-08-08T00:15:53;11.40;;;9.10;;
23718;SDS011;43322;52.230;5.702;2023-08-08T00:18:20;10.60;;;8.15;;
23718;SDS011;43322;52.230;5.702;2023-08-08T00:20:47;9.38;;;7.95;;
23718;SDS011;43322;52.230;5.702;2023-08-08T00:23:13;11.90;;;8.32;;
23718;SDS011;43322;52.230;5.702;2023-08-08T00:25:41;14.95;;;8.20;;
23718;SDS011;43322;52.230;5.702;2023-08-08T00:28:08;13.35;;;8.32;;
23718;SDS011;43322;52.230;5.702;2023-08-08T00:30:35;9.35;;;7.45;;
23718;SDS011;43322;52.230;5.702;2023-08-08T00:33:01;9.70;;;7.60;;
23718;SDS011;43322;52.230;5.702;2023-08-08T00:35:28;9.90;;;7.88;;
23718;SDS011;43322;52.230;5.702;2023-08-08T00:37:55;8.27;;;7.50;;
23718;SDS011;43322;52.230;5.702;2023-08-08T00:40:21;12.13;;;8.25;;
23718;SDS011;43322;52.230;5.702;2023-08-08T00:42:49;12.93;;;7.75;;
23718;SDS011;43322;52.230;5.702;2023-08-08T00:45:16;11.63;;;8.05;;
23718;SDS011;43322;52.230;5.702;2023-08-08T00:47:43;10.93;;;7.10;;
23718;SDS011;43322;52.230;5.702;2023-08-08T00:50:09;9.55;;;7.40;;
23718;SDS011;43322;52.230;5.702;2023-08-08T00:52:37;11.35;;;7.43;;
23718;SDS011;43322;52.230;5.702;2023-08-08T00:55:05;16.25;;;7.70;;
23718;SDS011;43322;52.230;5.702;2023-08-08T00:57:33;12.02;;;7.60;;
23718;SDS011;43322;52.230;5.702;2023-08-08T01:00:05;16.48;;;7.95;;
23718;SDS011;43322;52.230;5.702;2023-08-08T01:02:34;10.55;;;7.38;;
23718;SDS011;43322;52.230;5.702;2023-08-08T01:05:01;11.52;;;7.18;;
23718;SDS011;43322;52.230;5.702;2023-08-08T01:07:30;15.35;;;6.93;;
23718;SDS011;43322;52.230;5.702;2023-08-08T01:10:03;8.95;;;6.97;;
23718;SDS011;43322;52.230;5.702;2023-08-08T01:12:34;10.02;;;6.65;;
23718;SDS011;43322;52.230;5.702;2023-08-08T01:15:06;13.68;;;6.60;;
23718;SDS011;43322;52.230;5.702;2023-08-08T01:17:33;10.60;;;6.72;;
23718;SDS011;43322;52.230;5.702;2023-08-08T01:20:01;15.75;;;7.47;;
23718;SDS011;43322;52.230;5.702;2023-08-08T01:22:32;13.98;;;7.22;;
23718;SDS011;43322;52.230;5.702;2023-08-08T01:25:04;11.43;;;6.28;;
23718;SDS011;43322;52.230;5.702;2023-08-08T01:27:32;10.80;;;6.30;;
23718;SDS011;43322;52.230;5.702;2023-08-08T01:29:59;15.18;;;6.80;;
23718;SDS011;43322;52.230;5.702;2023-08-08T01:32:26;10.82;;;6.40;;
23718;SDS011;43322;52.230;5.702;2023-08-08T01:34:52;15.98;;;6.90;;
23718;SDS011;43322;52.230;5.702;2023-08-08T01:37:20;11.50;;;6.57;;
23718;SDS011;43322;52.230;5.702;2023-08-08T01:39:52;11.50;;;6.82;;
23718;SDS011;43322;52.230;5.702;2023-08-08T01:42:22;14.20;;;6.78;;
23718;SDS011;43322;52.230;5.702;2023-08-08T01:44:51;10.45;;;6.45;;
23718;SDS011;43322;52.230;5.702;2023-08-08T01:47:19;12.57;;;6.00;;
23718;SDS011;43322;52.230;5.702;2023-08-08T01:49:46;9.98;;;6.10;;
23718;SDS011;43322;52.230;5.702;2023-08-08T01:52:12;9.88;;;5.90;;
23718;SDS011;43322;52.230;5.702;2023-08-08T01:54:39;14.45;;;6.63;;
23718;SDS011;43322;52.230;5.702;2023-08-08T01:57:07;10.18;;;6.10;;
23718;SDS011;43322;52.230;5.702;2023-08-08T01:59:35;8.57;;;5.72;;
23718;SDS011;43322;52.230;5.702;2023-08-08T02:02:01;12.43;;;6.10;;
23718;SDS011;43322;52.230;5.702;2023-08-08T02:04:28;14.20;;;6.00;;
23718;SDS011;43322;52.230;5.702;2023-08-08T02:06:55;11.90;;;6.15;;
23718;SDS011;43322;52.230;5.702;2023-08-08T02:09:22;11.68;;;5.97;;
23718;SDS011;43322;52.230;5.702;2023-08-08T02:11:49;11.35;;;6.25;;
23718;SDS011;43322;52.230;5.702;2023-08-08T02:14:15;10.93;;;5.80;;
23718;SDS011;43322;52.230;5.702;2023-08-08T02:16:43;15.50;;;5.78;;
23718;SDS011;43322;52.230;5.702;2023-08-08T02:19:10;11.38;;;6.03;;
23718;SDS011;43322;52.230;5.702;2023-08-08T02:21:36;11.25;;;6.65;;
23718;SDS011;43322;52.230;5.702;2023-08-08T02:24:03;11.23;;;6.10;;
23718;SDS011;43322;52.230;5.702;2023-08-08T02:26:30;11.68;;;7.32;;
23718;SDS011;43322;52.230;5.702;2023-08-08T02:28:57;11.35;;;6.40;;
23718;SDS011;43322;52.230;5.702;2023-08-08T02:31:24;14.82;;;5.95;;
23718;SDS011;43322;52.230;5.702;2023-08-08T02:33:52;9.02;;;6.20;;
23718;SDS011;43322;52.230;5.702;2023-08-08T02:36:19;10.95;;;5.63;;
23718;SDS011;43322;52.230;5.702;2023-08-08T02:38:46;11.35;;;6.00;;
23718;SDS011;43322;52.230;5.702;2023-08-08T02:41:14;7.43;;;5.43;;
23718;SDS011;43322;52.230;5.702;2023-08-08T02:43:41;8.50;;;5.47;;
23718;SDS011;43322;52.230;5.702;2023-08-08T02:46:07;12.27;;;6.05;;
23718;SDS011;43322;52.230;5.702;2023-08-08T02:48:34;10.75;;;6.35;;
23718;SDS011;43322;52.230;5.702;2023-08-08T02:51:02;10.05;;;5.55;;
23718;SDS011;43322;52.230;5.702;2023-08-08T02:53:29;7.47;;;5.20;;
23718;SDS011;43322;52.230;5.702;2023-08-08T02:55:55;11.35;;;5.47;;
23718;SDS011;43322;52.230;5.702;2023-08-08T02:58:22;11.35;;;5.53;;
23718;SDS011;43322;52.230;5.702;2023-08-08T03:00:49;11.73;;;5.88;;
23718;SDS011;43322;52.230;5.702;2023-08-08T03:03:15;10.25;;;5.55;;
23718;SDS011;43322;52.230;5.702;2023-08-08T03:05:43;9.38;;;5.43;;
23718;SDS011;43322;52.230;5.702;2023-08-08T03:08:11;10.45;;;5.13;;
23718;SDS011;43322;52.230;5.702;2023-08-08T03:10:38;7.60;;;5.75;;
23718;SDS011;43322;52.230;5.702;2023-08-08T03:13:06;9.00;;;5.30;;
23718;SDS011;43322;52.230;5.702;2023-08-08T03:15:32;10.00;;;5.75;;
23718;SDS011;43322;52.230;5.702;2023-08-08T03:18:00;7.00;;;4.88;;
23718;SDS011;43322;52.230;5.702;2023-08-08T03:20:27;8.43;;;5.40;;
23718;SDS011;43322;52.230;5.702;2023-08-08T03:22:53;14.40;;;5.90;;
23718;SDS011;43322;52.230;5.702;2023-08-08T03:25:21;9.00;;;5.05;;
23718;SDS011;43322;52.230;5.702;2023-08-08T03:27:48;10.50;;;5.45;;
23718;SDS011;43322;52.230;5.702;2023-08-08T03:30:15;6.95;;;5.47;;
23718;SDS011;43322;52.230;5.702;2023-08-08T03:32:42;7.68;;;5.05;;
23718;SDS011;43322;52.230;5.702;2023-08-08T03:35:08;10.10;;;5.45;;
23718;SDS011;43322;52.230;5.702;2023-08-08T03:37:35;5.90;;;4.88;;
23718;SDS011;43322;52.230;5.702;2023-08-08T03:40:02;7.95;;;4.97;;
23718;SDS011;43322;52.230;5.702;2023-08-08T03:42:30;11.55;;;5.57;;
23718;SDS011;43322;52.230;5.702;2023-08-08T03:44:57;8.35;;;5.07;;
23718;SDS011;43322;52.230;5.702;2023-08-08T03:47:23;9.40;;;5.35;;
23718;SDS011;43322;52.230;5.702;2023-08-08T03:49:50;11.73;;;5.68;;
23718;SDS011;43322;52.230;5.702;2023-08-08T03:52:20;8.60;;;5.20;;
23718;SDS011;43322;52.230;5.702;2023-08-08T03:54:46;13.27;;;5.72;;
23718;SDS011;43322;52.230;5.702;2023-08-08T03:57:13;10.57;;;5.50;;
23718;SDS011;43322;52.230;5.702;2023-08-08T03:59:41;6.60;;;5.35;;
23718;SDS011;43322;52.230;5.702;2023-08-08T04:02:08;8.18;;;4.88;;
23718;SDS011;43322;52.230;5.702;2023-08-08T04:04:34;9.07;;;5.43;;
23718;SDS011;43322;52.230;5.702;2023-08-08T04:07:01;8.05;;;5.25;;
23718;SDS011;43322;52.230;5.702;2023-08-08T04:09:28;10.98;;;5.63;;
23718;SDS011;43322;52.230;5.702;2023-08-08T04:11:55;14.65;;;5.88;;
23718;SDS011;43322;52.230;5.702;2023-08-08T04:14:21;7.25;;;4.93;;
23718;SDS011;43322;52.230;5.702;2023-08-08T04:16:49;8.20;;;5.88;;
23718;SDS011;43322;52.230;5.702;2023-08-08T04:19:16;6.50;;;5.90;;
23718;SDS011;43322;52.230;5.702;2023-08-08T04:21:43;7.47;;;5.30;;
23718;SDS011;43322;52.230;5.702;2023-08-08T04:24:10;9.55;;;5.82;;
23718;SDS011;43322;52.230;5.702;2023-08-08T04:26:37;10.07;;;5.22;;
23718;SDS011;43322;52.230;5.702;2023-08-08T04:29:04;9.23;;;5.88;;
23718;SDS011;43322;52.230;5.702;2023-08-08T04:31:31;9.40;;;5.65;;
23718;SDS011;43322;52.230;5.702;2023-08-08T04:33:59;10.05;;;5.78;;
23718;SDS011;43322;52.230;5.702;2023-08-08T04:36:26;7.43;;;5.63;;
23718;SDS011;43322;52.230;5.702;2023-08-08T04:38:53;9.00;;;4.93;;
23718;SDS011;43322;52.230;5.702;2023-08-08T04:41:19;10.13;;;5.43;;
23718;SDS011;43322;52.230;5.702;2023-08-08T04:43:46;13.38;;;4.97;;
23718;SDS011;43322;52.230;5.702;2023-08-08T04:46:13;12.93;;;5.78;;
23718;SDS011;43322;52.230;5.702;2023-08-08T04:48:39;9.93;;;5.72;;
23718;SDS011;43322;52.230;5.702;2023-08-08T04:51:08;13.25;;;5.75;;
23718;SDS011;43322;52.230;5.702;2023-08-08T04:53:35;12.82;;;5.95;;
23718;SDS011;43322;52.230;5.702;2023-08-08T04:56:02;6.80;;;5.18;;
23718;SDS011;43322;52.230;5.702;2023-08-08T04:58:28;6.28;;;4.75;;
23718;SDS011;43322;52.230;5.702;2023-08-08T05:00:55;12.27;;;5.35;;
23718;SDS011;43322;52.230;5.702;2023-08-08T05:03:22;10.40;;;5.18;;
23718;SDS011;43322;52.230;5.702;2023-08-08T05:05:49;9.82;;;5.80;;
23718;SDS011;43322;52.230;5.702;2023-08-08T05:08:17;5.57;;;4.72;;
23718;SDS011;43322;52.230;5.702;2023-08-08T05:10:43;7.75;;;5.30;;
23718;SDS011;43322;52.230;5.702;2023-08-08T05:13:10;12.50;;;5.88;;
23718;SDS011;43322;52.230;5.702;2023-08-08T05:15:38;12.18;;;5.38;;
23718;SDS011;43322;52.230;5.702;2023-08-08T05:18:05;9.05;;;5.05;;
23718;SDS011;43322;52.230;5.702;2023-08-08T05:20:32;6.90;;;4.80;;
23718;SDS011;43322;52.230;5.702;2023-08-08T05:22:58;6.32;;;4.88;;
23718;SDS011;43322;52.230;5.702;2023-08-08T05:25:26;9.52;;;5.32;;
23718;SDS011;43322;52.230;5.702;2023-08-08T05:27:53;12.45;;;5.65;;
23718;SDS011;43322;52.230;5.702;2023-08-08T05:30:20;6.50;;;5.25;;
23718;SDS011;43322;52.230;5.702;2023-08-08T05:32:46;7.30;;;5.03;;
23718;SDS011;43322;52.230;5.702;2023-08-08T05:35:13;9.77;;;5.70;;
23718;SDS011;43322;52.230;5.702;2023-08-08T05:37:40;8.13;;;5.32;;
23718;SDS011;43322;52.230;5.702;2023-08-08T05:40:07;5.95;;;5.03;;
23718;SDS011;43322;52.230;5.702;2023-08-08T05:42:36;9.90;;;5.10;;
23718;SDS011;43322;52.230;5.702;2023-08-08T05:45:03;8.75;;;5.00;;
23718;SDS011;43322;52.230;5.702;2023-08-08T05:47:31;6.90;;;4.25;;
23718;SDS011;43322;52.230;5.702;2023-08-08T05:49:58;8.30;;;4.63;;
23718;SDS011;43322;52.230;5.702;2023-08-08T05:52:24;6.03;;;3.92;;
23718;SDS011;43322;52.230;5.702;2023-08-08T05:54:51;9.88;;;4.18;;
23718;SDS011;43322;52.230;5.702;2023-08-08T05:57:17;8.25;;;4.00;;
23718;SDS011;43322;52.230;5.702;2023-08-08T05:59:47;6.85;;;3.30;;
23718;SDS011;43322;52.230;5.702;2023-08-08T06:02:14;11.43;;;4.22;;
23718;SDS011;43322;52.230;5.702;2023-08-08T06:04:40;8.52;;;3.95;;
23718;SDS011;43322;52.230;5.702;2023-08-08T06:07:07;5.90;;;3.20;;
23718;SDS011;43322;52.230;5.702;2023-08-08T06:09:34;4.43;;;3.20;;
23718;SDS011;43322;52.230;5.702;2023-08-08T06:12:02;6.53;;;3.30;;
23718;SDS011;43322;52.230;5.702;2023-08-08T06:14:29;4.40;;;2.67;;
23718;SDS011;43322;52.230;5.702;2023-08-08T06:16:57;5.72;;;3.10;;
23718;SDS011;43322;52.230;5.702;2023-08-08T06:19:24;6.00;;;3.05;;
23718;SDS011;43322;52.230;5.702;2023-08-08T06:21:51;4.47;;;2.90;;
23718;SDS011;43322;52.230;5.702;2023-08-08T06:24:18;4.43;;;2.70;;
23718;SDS011;43322;52.230;5.702;2023-08-08T06:26:44;6.88;;;3.15;;
23718;SDS011;43322;52.230;5.702;2023-08-08T06:29:11;2.72;;;2.50;;
23718;SDS011;43322;52.230;5.702;2023-08-08T06:31:39;3.53;;;2.58;;
23718;SDS011;43322;52.230;5.702;2023-08-08T06:34:07;6.25;;;2.40;;
23718;SDS011;43322;52.230;5.702;2023-08-08T06:36:34;2.95;;;2.10;;
23718;SDS011;43322;52.230;5.702;2023-08-08T06:39:00;2.95;;;2.50;;
23718;SDS011;43322;52.230;5.702;2023-08-08T06:41:28;4.35;;;2.25;;
23718;SDS011;43322;52.230;5.702;2023-08-08T06:43:54;3.15;;;2.00;;
23718;SDS011;43322;52.230;5.702;2023-08-08T06:46:21;5.40;;;2.50;;
23718;SDS011;43322;52.230;5.702;2023-08-08T06:48:49;4.68;;;2.25;;
23718;SDS011;43322;52.230;5.702;2023-08-08T06:51:19;4.82;;;1.98;;
23718;SDS011;43322;52.230;5.702;2023-08-08T06:53:46;6.03;;;2.45;;
23718;SDS011;43322;52.230;5.702;2023-08-08T06:56:12;2.45;;;2.17;;
23718;SDS011;43322;52.230;5.702;2023-08-08T06:58:39;3.95;;;1.65;;
23718;SDS011;43322;52.230;5.702;2023-08-08T07:01:06;2.38;;;1.60;;
23718;SDS011;43322;52.230;5.702;2023-08-08T07:03:33;6.80;;;1.98;;
23718;SDS011;43322;52.230;5.702;2023-08-08T07:05:59;6.97;;;1.63;;
23718;SDS011;43322;52.230;5.702;2023-08-08T07:08:28;6.80;;;2.00;;
23718;SDS011;43322;52.230;5.702;2023-08-08T07:10:56;3.28;;;1.65;;
23718;SDS011;43322;52.230;5.702;2023-08-08T07:13:23;3.60;;;1.60;;
23718;SDS011;43322;52.230;5.702;2023-08-08T07:15:50;3.78;;;1.55;;
23718;SDS011;43322;52.230;5.702;2023-08-08T07:18:16;4.05;;;1.58;;
23718;SDS011;43322;52.230;5.702;2023-08-08T07:20:43;3.13;;;1.42;;
23718;SDS011;43322;52.230;5.702;2023-08-08T07:23:10;2.70;;;1.45;;
23718;SDS011;43322;52.230;5.702;2023-08-08T07:25:37;3.78;;;1.60;;
23718;SDS011;43322;52.230;5.702;2023-08-08T07:28:04;2.45;;;1.20;;
23718;SDS011;43322;52.230;5.702;2023-08-08T07:30:31;1.73;;;1.33;;
23718;SDS011;43322;52.230;5.702;2023-08-08T07:32:58;7.57;;;1.63;;
23718;SDS011;43322;52.230;5.702;2023-08-08T07:35:24;2.00;;;1.02;;
23718;SDS011;43322;52.230;5.702;2023-08-08T07:37:51;5.72;;;1.30;;
23718;SDS011;43322;52.230;5.702;2023-08-08T07:40:19;4.38;;;1.73;;
23718;SDS011;43322;52.230;5.702;2023-08-08T07:42:48;4.03;;;1.20;;
23718;SDS011;43322;52.230;5.702;2023-08-08T07:45:15;2.65;;;1.02;;
23718;SDS011;43322;52.230;5.702;2023-08-08T07:47:42;2.22;;;1.27;;
23718;SDS011;43322;52.230;5.702;2023-08-08T07:50:09;5.80;;;1.35;;
23718;SDS011;43322;52.230;5.702;2023-08-08T07:52:36;4.13;;;1.00;;
23718;SDS011;43322;52.230;5.702;2023-08-08T07:55:03;2.72;;;1.20;;
23718;SDS011;43322;52.230;5.702;2023-08-08T07:57:31;2.75;;;0.95;;
23718;SDS011;43322;52.230;5.702;2023-08-08T08:00:01;4.13;;;1.60;;
23718;SDS011;43322;52.230;5.702;2023-08-08T08:02:34;1.08;;;0.98;;
23718;SDS011;43322;52.230;5.702;2023-08-08T08:05:01;2.00;;;1.23;;
23718;SDS011;43322;52.230;5.702;2023-08-08T08:07:30;1.75;;;1.15;;
23718;SDS011;43322;52.230;5.702;2023-08-08T08:09:57;4.75;;;1.13;;
23718;SDS011;43322;52.230;5.702;2023-08-08T08:12:23;1.55;;;1.00;;
23718;SDS011;43322;52.230;5.702;2023-08-08T08:14:50;6.25;;;1.13;;
23718;SDS011;43322;52.230;5.702;2023-08-08T08:17:18;3.50;;;1.00;;
23718;SDS011;43322;52.230;5.702;2023-08-08T08:19:45;2.47;;;1.50;;
23718;SDS011;43322;52.230;5.702;2023-08-08T08:22:12;2.83;;;1.10;;
23718;SDS011;43322;52.230;5.702;2023-08-08T08:24:38;1.20;;;0.70;;
23718;SDS011;43322;52.230;5.702;2023-08-08T08:27:05;1.75;;;1.13;;
23718;SDS011;43322;52.230;5.702;2023-08-08T08:29:32;2.22;;;0.93;;
23718;SDS011;43322;52.230;5.702;2023-08-08T08:31:58;2.05;;;0.90;;
23718;SDS011;43322;52.230;5.702;2023-08-08T08:34:26;2.33;;;1.00;;
23718;SDS011;43322;52.230;5.702;2023-08-08T08:36:53;6.28;;;1.00;;
23718;SDS011;43322;52.230;5.702;2023-08-08T08:39:19;5.85;;;1.00;;
23718;SDS011;43322;52.230;5.702;2023-08-08T08:41:47;3.63;;;0.90;;
23718;SDS011;43322;52.230;5.702;2023-08-08T08:44:16;1.13;;;0.70;;
23718;SDS011;43322;52.230;5.702;2023-08-08T08:46:42;5.53;;;0.60;;
23718;SDS011;43322;52.230;5.702;2023-08-08T08:49:13;2.05;;;0.80;;
23718;SDS011;43322;52.230;5.702;2023-08-08T08:51:41;3.97;;;0.80;;
23718;SDS011;43322;52.230;5.702;2023-08-08T08:54:08;3.92;;;0.80;;
23718;SDS011;43322;52.230;5.702;2023-08-08T08:56:36;3.30;;;0.85;;
23718;SDS011;43322;52.230;5.702;2023-08-08T08:59:03;2.72;;;0.95;;
23718;SDS011;43322;52.230;5.702;2023-08-08T09:01:30;0.80;;;0.80;;
23718;SDS011;43322;52.230;5.702;2023-08-08T09:03:57;2.25;;;1.00;;
23718;SDS011;43322;52.230;5.702;2023-08-08T09:06:24;3.53;;;0.70;;
23718;SDS011;43322;52.230;5.702;2023-08-08T09:08:52;2.10;;;0.70;;
23718;SDS011;43322;52.230;5.702;2023-08-08T09:11:20;1.45;;;0.63;;
23718;SDS011;43322;52.230;5.702;2023-08-08T09:13:47;2.13;;;0.98;;
23718;SDS011;43322;52.230;5.702;2023-08-08T09:16:13;1.55;;;0.82;;
23718;SDS011;43322;52.230;5.702;2023-08-08T09:18:40;1.90;;;0.52;;
23718;SDS011;43322;52.230;5.702;2023-08-08T09:21:07;0.80;;;0.60;;
23718;SDS011;43322;52.230;5.702;2023-08-08T09:23:35;0.82;;;0.50;;
23718;SDS011;43322;52.230;5.702;2023-08-08T09:26:05;1.60;;;0.70;;
23718;SDS011;43322;52.230;5.702;2023-08-08T09:28:32;1.30;;;0.77;;
23718;SDS011;43322;52.230;5.702;2023-08-08T09:30:58;2.40;;;0.70;;
23718;SDS011;43322;52.230;5.702;2023-08-08T09:33:27;6.65;;;0.68;;
23718;SDS011;43322;52.230;5.702;2023-08-08T09:35:54;1.75;;;0.70;;
23718;SDS011;43322;52.230;5.702;2023-08-08T09:38:21;3.83;;;0.50;;
23718;SDS011;43322;52.230;5.702;2023-08-08T09:40:49;4.97;;;0.80;;
23718;SDS011;43322;52.230;5.702;2023-08-08T09:43:17;5.30;;;0.70;;
23718;SDS011;43322;52.230;5.702;2023-08-08T09:45:44;1.75;;;0.75;;
23718;SDS011;43322;52.230;5.702;2023-08-08T09:48:10;1.95;;;1.30;;
23718;SDS011;43322;52.230;5.702;2023-08-08T09:50:37;2.72;;;0.60;;
23718;SDS011;43322;52.230;5.702;2023-08-08T09:53:06;0.82;;;0.55;;
23718;SDS011;43322;52.230;5.702;2023-08-08T09:55:33;1.90;;;0.82;;
23718;SDS011;43322;52.230;5.702;2023-08-08T09:58:00;1.70;;;0.68;;
23718;SDS011;43322;52.230;5.702;2023-08-08T10:00:29;0.60;;;0.60;;
23718;SDS011;43322;52.230;5.702;2023-08-08T10:02:59;0.57;;;0.52;;
23718;SDS011;43322;52.230;5.702;2023-08-08T10:05:26;4.68;;;0.90;;
23718;SDS011;43322;52.230;5.702;2023-08-08T10:07:53;2.10;;;0.65;;
23718;SDS011;43322;52.230;5.702;2023-08-08T10:10:21;1.83;;;0.63;;
23718;SDS011;43322;52.230;5.702;2023-08-08T10:12:48;1.42;;;0.60;;
23718;SDS011;43322;52.230;5.702;2023-08-08T10:15:16;2.80;;;0.50;;
23718;SDS011;43322;52.230;5.702;2023-08-08T10:17:44;1.23;;;0.65;;
23718;SDS011;43322;52.230;5.702;2023-08-08T10:20:11;0.50;;;0.50;;
23718;SDS011;43322;52.230;5.702;2023-08-08T10:22:41;1.30;;;0.70;;
23718;SDS011;43322;52.230;5.702;2023-08-08T10:25:09;1.73;;;0.77;;
23718;SDS011;43322;52.230;5.702;2023-08-08T10:27:44;0.98;;;0.70;;
23718;SDS011;43322;52.230;5.702;2023-08-08T10:30:11;1.27;;;0.70;;
23718;SDS011;43322;52.230;5.702;2023-08-08T10:32:39;0.85;;;0.60;;
23718;SDS011;43322;52.230;5.702;2023-08-08T10:35:08;0.73;;;0.60;;
23718;SDS011;43322;52.230;5.702;2023-08-08T10:37:35;0.73;;;0.50;;
23718;SDS011;43322;52.230;5.702;2023-08-08T10:40:04;1.45;;;0.73;;
23718;SDS011;43322;52.230;5.702;2023-08-08T10:42:32;0.57;;;0.55;;
23718;SDS011;43322;52.230;5.702;2023-08-08T10:45:08;0.68;;;0.60;;
23718;SDS011;43322;52.230;5.702;2023-08-08T10:47:36;2.70;;;0.60;;
23718;SDS011;43322;52.230;5.702;2023-08-08T10:50:04;1.55;;;0.80;;
23718;SDS011;43322;52.230;5.702;2023-08-08T10:52:37;0.77;;;0.50;;
23718;SDS011;43322;52.230;5.702;2023-08-08T10:55:05;0.93;;;0.73;;
23718;SDS011;43322;52.230;5.702;2023-08-08T10:57:32;1.33;;;0.77;;
23718;SDS011;43322;52.230;5.702;2023-08-08T11:02:44;1.52;;;0.70;;
23718;SDS011;43322;52.230;5.702;2023-08-08T11:05:15;0.50;;;0.50;;
23718;SDS011;43322;52.230;5.702;2023-08-08T11:07:44;2.25;;;0.70;;
23718;SDS011;43322;52.230;5.702;2023-08-08T11:10:11;1.30;;;0.70;;
23718;SDS011;43322;52.230;5.702;2023-08-08T11:12:37;1.75;;;1.05;;
23718;SDS011;43322;52.230;5.702;2023-08-08T11:15:04;0.50;;;0.50;;
23718;SDS011;43322;52.230;5.702;2023-08-08T11:17:32;2.45;;;0.60;;
23718;SDS011;43322;52.230;5.702;2023-08-08T11:19:59;0.85;;;0.68;;
23718;SDS011;43322;52.230;5.702;2023-08-08T11:22:26;0.70;;;0.50;;
23718;SDS011;43322;52.230;5.702;2023-08-08T11:24:54;1.85;;;0.50;;
23718;SDS011;43322;52.230;5.702;2023-08-08T11:27:28;1.25;;;0.60;;
23718;SDS011;43322;52.230;5.702;2023-08-08T11:29:55;1.42;;;0.70;;
23718;SDS011;43322;52.230;5.702;2023-08-08T11:32:22;0.82;;;0.47;;
23718;SDS011;43322;52.230;5.702;2023-08-08T11:34:52;3.67;;;0.60;;
23718;SDS011;43322;52.230;5.702;2023-08-08T11:37:19;1.55;;;0.60;;
23718;SDS011;43322;52.230;5.702;2023-08-08T11:39:46;0.70;;;0.52;;
23718;SDS011;43322;52.230;5.702;2023-08-08T11:42:15;4.53;;;0.70;;
23718;SDS011;43322;52.230;5.702;2023-08-08T11:44:41;1.20;;;0.60;;
23718;SDS011;43322;52.230;5.702;2023-08-08T11:47:08;0.82;;;0.65;;
23718;SDS011;43322;52.230;5.702;2023-08-08T11:49:39;0.85;;;0.70;;
23718;SDS011;43322;52.230;5.702;2023-08-08T11:52:07;0.60;;;0.60;;
23718;SDS011;43322;52.230;5.702;2023-08-08T11:54:36;1.38;;;0.77;;
23718;SDS011;43322;52.230;5.702;2023-08-08T11:57:03;2.63;;;0.65;;
23718;SDS011;43322;52.230;5.702;2023-08-08T11:59:31;1.20;;;0.60;;
23718;SDS011;43322;52.230;5.702;2023-08-08T12:01:58;1.38;;;0.93;;
23718;SDS011;43322;52.230;5.702;2023-08-08T12:04:25;3.38;;;0.68;;
23718;SDS011;43322;52.230;5.702;2023-08-08T12:07:00;1.75;;;0.70;;
23718;SDS011;43322;52.230;5.702;2023-08-08T12:09:28;1.08;;;1.00;;
23718;SDS011;43322;52.230;5.702;2023-08-08T12:11:58;2.58;;;0.80;;
23718;SDS011;43322;52.230;5.702;2023-08-08T12:14:25;3.53;;;2.08;;
23718;SDS011;43322;52.230;5.702;2023-08-08T12:16:54;1.33;;;0.75;;
23718;SDS011;43322;52.230;5.702;2023-08-08T12:19:22;1.15;;;0.80;;
23718;SDS011;43322;52.230;5.702;2023-08-08T12:21:49;1.02;;;0.82;;
23718;SDS011;43322;52.230;5.702;2023-08-08T12:24:16;2.15;;;1.02;;
23718;SDS011;43322;52.230;5.702;2023-08-08T12:26:43;0.73;;;0.70;;
23718;SDS011;43322;52.230;5.702;2023-08-08T12:29:10;2.22;;;0.90;;
23718;SDS011;43322;52.230;5.702;2023-08-08T12:31:37;1.90;;;0.82;;
23718;SDS011;43322;52.230;5.702;2023-08-08T12:34:05;1.92;;;0.85;;
23718;SDS011;43322;52.230;5.702;2023-08-08T12:36:32;2.13;;;0.90;;
23718;SDS011;43322;52.230;5.702;2023-08-08T12:38:59;1.80;;;0.88;;
23718;SDS011;43322;52.230;5.702;2023-08-08T12:41:25;1.65;;;0.65;;
23718;SDS011;43322;52.230;5.702;2023-08-08T12:43:54;0.63;;;0.60;;
23718;SDS011;43322;52.230;5.702;2023-08-08T12:46:21;1.50;;;0.90;;
23718;SDS011;43322;52.230;5.702;2023-08-08T12:48:48;2.78;;;0.70;;
23718;SDS011;43322;52.230;5.702;2023-08-08T12:51:18;1.75;;;0.82;;
23718;SDS011;43322;52.230;5.702;2023-08-08T12:53:44;2.40;;;0.70;;
23718;SDS011;43322;52.230;5.702;2023-08-08T12:56:11;2.75;;;0.95;;
23718;SDS011;43322;52.230;5.702;2023-08-08T12:58:38;1.75;;;0.80;;
23718;SDS011;43322;52.230;5.702;2023-08-08T13:01:05;3.08;;;0.95;;
23718;SDS011;43322;52.230;5.702;2023-08-08T13:03:32;0.90;;;0.80;;
23718;SDS011;43322;52.230;5.702;2023-08-08T13:06:00;1.77;;;0.80;;
23718;SDS011;43322;52.230;5.702;2023-08-08T13:08:28;0.70;;;0.70;;
23718;SDS011;43322;52.230;5.702;2023-08-08T13:10:54;2.42;;;0.70;;
23718;SDS011;43322;52.230;5.702;2023-08-08T13:13:21;1.27;;;0.60;;
23718;SDS011;43322;52.230;5.702;2023-08-08T13:15:50;0.85;;;0.63;;
23718;SDS011;43322;52.230;5.702;2023-08-08T13:18:17;0.68;;;0.60;;
23718;SDS011;43322;52.230;5.702;2023-08-08T13:20:43;7.25;;;0.88;;
23718;SDS011;43322;52.230;5.702;2023-08-08T13:23:10;1.70;;;0.77;;
23718;SDS011;43322;52.230;5.702;2023-08-08T13:25:38;5.68;;;0.80;;
23718;SDS011;43322;52.230;5.702;2023-08-08T13:28:06;0.73;;;0.68;;
23718;SDS011;43322;52.230;5.702;2023-08-08T13:30:33;1.23;;;0.80;;
23718;SDS011;43322;52.230;5.702;2023-08-08T13:33:00;1.52;;;0.80;;
23718;SDS011;43322;52.230;5.702;2023-08-08T13:35:27;1.52;;;0.70;;
23718;SDS011;43322;52.230;5.702;2023-08-08T13:37:55;1.35;;;0.70;;
23718;SDS011;43322;52.230;5.702;2023-08-08T13:40:21;3.17;;;0.60;;
23718;SDS011;43322;52.230;5.702;2023-08-08T13:42:49;1.13;;;0.70;;
23718;SDS011;43322;52.230;5.702;2023-08-08T13:45:16;1.00;;;0.57;;
23718;SDS011;43322;52.230;5.702;2023-08-08T13:47:44;4.95;;;0.88;;
23718;SDS011;43322;52.230;5.702;2023-08-08T13:50:11;2.10;;;0.85;;
23718;SDS011;43322;52.230;5.702;2023-08-08T13:52:38;2.08;;;0.95;;
23718;SDS011;43322;52.230;5.702;2023-08-08T13:55:05;1.15;;;0.70;;
23718;SDS011;43322;52.230;5.702;2023-08-08T13:57:32;4.53;;;1.27;;
23718;SDS011;43322;52.230;5.702;2023-08-08T14:00:00;3.13;;;0.60;;
23718;SDS011;43322;52.230;5.702;2023-08-08T14:02:28;1.13;;;0.77;;
23718;SDS011;43322;52.230;5.702;2023-08-08T14:04:55;2.97;;;0.93;;
23718;SDS011;43322;52.230;5.702;2023-08-08T14:07:21;1.38;;;0.77;;
23718;SDS011;43322;52.230;5.702;2023-08-08T14:09:48;1.33;;;0.80;;
23718;SDS011;43322;52.230;5.702;2023-08-08T14:12:15;1.20;;;0.75;;
23718;SDS011;43322;52.230;5.702;2023-08-08T14:14:42;3.33;;;0.80;;
23718;SDS011;43322;52.230;5.702;2023-08-08T14:17:10;1.95;;;0.90;;
23718;SDS011;43322;52.230;5.702;2023-08-08T14:19:36;1.00;;;0.70;;
23718;SDS011;43322;52.230;5.702;2023-08-08T14:22:03;2.70;;;0.70;;
23718;SDS011;43322;52.230;5.702;2023-08-08T14:24:30;1.08;;;0.70;;
23718;SDS011;43322;52.230;5.702;2023-08-08T14:26:56;2.38;;;1.02;;
23718;SDS011;43322;52.230;5.702;2023-08-08T14:29:23;0.68;;;0.68;;
23718;SDS011;43322;52.230;5.702;2023-08-08T14:31:50;1.80;;;0.77;;
23718;SDS011;43322;52.230;5.702;2023-08-08T14:34:18;3.15;;;0.73;;
23718;SDS011;43322;52.230;5.702;2023-08-08T14:36:45;2.40;;;0.85;;
23718;SDS011;43322;52.230;5.702;2023-08-08T14:39:12;1.30;;;0.88;;
23718;SDS011;43322;52.230;5.702;2023-08-08T14:41:38;4.05;;;1.13;;
23718;SDS011;43322;52.230;5.702;2023-08-08T14:44:05;4.47;;;1.08;;
23718;SDS011;43322;52.230;5.702;2023-08-08T14:46:32;2.25;;;1.00;;
23718;SDS011;43322;52.230;5.702;2023-08-08T14:48:59;3.08;;;1.08;;